createdAt,value
2019-02-02T00:02:38.638Z,7.00
2019-02-02T00:07:42.427Z,7.00
2019-02-02T00:12:46.332Z,6.50
2019-02-02T00:17:50.138Z,7.20
2019-02-02T00:22:53.953Z,5.80
2019-02-02T00:27:57.781Z,6.50
2019-02-02T00:33:01.586Z,6.00
2019-02-02T00:38:05.467Z,6.80
2019-02-02T00:43:09.256Z,7.00
2019-02-02T00:48:13.122Z,6.60
2019-02-02T00:53:17.012Z,6.80
2019-02-02T00:58:20.868Z,7.00
2019-02-02T01:03:24.681Z,7.00
2019-02-02T01:08:28.510Z,6.20
2019-02-02T01:13:32.381Z,6.00
2019-02-02T01:18:36.188Z,5.80
2019-02-02T01:23:40.092Z,5.80
2019-02-02T01:28:43.892Z,5.50
2019-02-02T01:33:47.693Z,6.50
2019-02-02T01:38:51.488Z,6.25
2019-02-02T01:43:55.297Z,5.00
2019-02-02T01:48:59.070Z,6.75
2019-02-02T01:54:02.864Z,5.80
2019-02-02T01:59:06.726Z,6.00
2019-02-02T02:04:10.550Z,6.75
2019-02-02T02:09:14.325Z,6.00
2019-02-02T02:14:18.120Z,5.50
2019-02-02T02:19:21.915Z,6.60
2019-02-02T02:24:25.783Z,7.00
2019-02-02T02:29:29.562Z,5.50
2019-02-02T02:34:33.362Z,4.50
2019-02-02T02:39:37.206Z,6.00
2019-02-02T02:44:40.995Z,6.50
2019-02-02T02:49:44.790Z,5.00
2019-02-02T02:54:48.639Z,7.00
2019-02-02T02:59:52.493Z,4.00
2019-02-02T03:04:56.265Z,5.50
2019-02-02T03:10:00.102Z,5.00
2019-02-02T03:15:04.777Z,3.80
2019-02-02T03:20:09.061Z,6.00
2019-02-02T03:25:15.192Z,7.00
2019-02-02T03:30:19.827Z,5.50
2019-02-02T03:35:23.720Z,6.00
2019-02-02T03:40:27.554Z,5.00
2019-02-02T03:45:31.421Z,4.00
2019-02-02T03:50:35.237Z,4.40
2019-02-02T03:55:39.026Z,4.50
2019-02-02T04:00:42.822Z,4.40
2019-02-02T04:05:46.706Z,5.50
2019-02-02T04:10:50.593Z,5.50
2019-02-02T04:15:54.351Z,5.50
2019-02-02T04:20:58.153Z,4.80
2019-02-02T04:26:01.901Z,5.60
2019-02-02T04:31:05.991Z,4.00
2019-02-02T04:36:09.781Z,6.00
2019-02-02T04:41:13.615Z,5.50
2019-02-02T04:46:17.497Z,4.50
2019-02-02T04:51:21.457Z,4.00
2019-02-02T04:56:25.274Z,4.00
2019-02-02T05:01:29.051Z,6.00
2019-02-02T05:06:32.885Z,4.50
2019-02-02T05:11:36.643Z,4.00
2019-02-02T05:16:40.451Z,4.00
2019-02-02T05:21:44.194Z,5.50
2019-02-02T05:26:47.970Z,4.80
2019-02-02T05:31:51.814Z,4.00
2019-02-02T05:36:55.653Z,3.75
2019-02-02T05:41:59.420Z,3.00
2019-02-02T05:47:03.236Z,3.25
2019-02-02T05:52:07.090Z,3.50
2019-02-02T05:57:10.861Z,4.00
2019-02-02T06:02:14.616Z,4.00
2019-02-02T06:07:18.401Z,4.40
2019-02-02T06:12:22.210Z,4.00
2019-02-02T06:17:25.960Z,4.50
2019-02-02T06:22:29.758Z,6.20
2019-02-02T06:27:33.591Z,5.50
2019-02-02T06:32:37.428Z,4.50
2019-02-02T06:37:41.227Z,4.00
2019-02-02T06:42:45.159Z,4.50
2019-02-02T06:47:49.048Z,5.60
2019-02-02T06:52:52.852Z,2.60
2019-02-02T06:57:56.621Z,5.00
2019-02-02T07:03:00.382Z,4.00
2019-02-02T07:08:04.236Z,3.00
2019-02-02T07:13:08.022Z,4.80
2019-02-02T07:18:11.880Z,4.00
2019-02-02T07:23:15.711Z,3.00
2019-02-02T07:28:19.470Z,3.40
2019-02-02T07:33:23.236Z,4.00
2019-02-02T07:38:27.046Z,3.60
2019-02-02T07:43:30.814Z,3.00
2019-02-02T07:48:34.720Z,3.00
2019-02-02T07:53:38.609Z,3.00
2019-02-02T07:58:42.404Z,4.00
2019-02-02T08:03:46.295Z,26.80
2019-02-02T08:08:50.117Z,34.50
2019-02-02T08:13:53.916Z,32.80
2019-02-02T08:18:58.005Z,29.25
2019-02-02T08:24:01.798Z,27.00
2019-02-02T08:29:05.622Z,25.00
2019-02-02T08:34:09.435Z,24.60
2019-02-02T08:39:13.235Z,24.25
2019-02-02T08:44:17.028Z,23.40
2019-02-02T08:49:20.811Z,23.25
2019-02-02T08:54:24.614Z,24.25
2019-02-02T08:59:28.439Z,24.20
2019-02-02T09:04:32.368Z,24.00
2019-02-02T09:09:36.261Z,25.20
2019-02-02T09:14:40.061Z,24.80
2019-02-02T09:19:43.956Z,24.00
2019-02-02T09:24:48.184Z,23.25
2019-02-02T09:29:51.970Z,23.75
2019-02-02T09:34:55.758Z,20.75
2019-02-02T09:39:59.799Z,20.75
2019-02-02T09:45:03.745Z,21.75
2019-02-02T09:50:09.521Z,20.60
2019-02-02T09:55:15.089Z,20.00
2019-02-02T10:00:21.190Z,20.40
2019-02-02T10:05:25.021Z,19.50
2019-02-02T10:10:30.451Z,21.40
2019-02-02T10:15:34.235Z,21.00
2019-02-02T10:20:38.213Z,19.00
2019-02-02T10:25:42.165Z,19.80
2019-02-02T10:30:46.035Z,20.20
2019-02-02T10:35:49.905Z,19.60
2019-02-02T10:40:53.724Z,19.80
2019-02-02T10:45:57.537Z,18.75
2019-02-02T10:51:01.323Z,19.50
2019-02-02T10:56:05.125Z,20.00
2019-02-02T11:01:08.908Z,19.40
2019-02-02T11:06:12.917Z,17.50
2019-02-02T11:11:16.795Z,19.00
2019-02-02T11:16:20.640Z,18.50
2019-02-02T11:21:24.616Z,18.75
2019-02-02T11:26:29.555Z,17.75
2019-02-02T11:31:33.518Z,18.25
2019-02-02T11:36:37.312Z,17.50
2019-02-02T11:41:41.119Z,17.25
2019-02-02T11:46:45.101Z,18.25
2019-02-02T11:51:48.914Z,19.00
2019-02-02T11:56:52.717Z,20.25
2019-02-02T12:01:56.505Z,20.00
2019-02-02T12:07:52.477Z,18.40
2019-02-02T12:12:56.423Z,19.00
2019-02-02T12:18:00.205Z,18.50
2019-02-02T12:23:04.040Z,19.00
2019-02-02T12:28:09.309Z,18.40
2019-02-02T12:33:13.643Z,18.00
2019-02-02T12:38:17.477Z,18.75
2019-02-02T12:43:21.578Z,17.75
2019-02-02T12:48:25.431Z,17.00
2019-02-02T12:53:29.633Z,17.00
2019-02-02T12:58:33.508Z,16.50
2019-02-02T13:03:37.444Z,15.50
2019-02-02T13:08:41.247Z,15.80
2019-02-02T13:13:45.426Z,15.80
2019-02-02T13:18:49.355Z,16.50
2019-02-02T13:23:53.273Z,15.25
2019-02-02T13:28:57.676Z,14.80
2019-02-02T13:34:01.820Z,15.75
2019-02-02T13:39:09.560Z,15.00
2019-02-02T13:44:13.535Z,16.00
2019-02-02T13:49:17.513Z,15.00
2019-02-02T13:54:21.583Z,15.00
2019-02-02T13:59:25.572Z,16.20
2019-02-02T14:04:29.663Z,14.00
2019-02-02T14:09:33.448Z,15.40
2019-02-02T14:14:37.373Z,15.25
2019-02-02T14:19:41.316Z,14.75
2019-02-02T14:24:45.106Z,14.00
2019-02-02T14:29:49.068Z,15.00
2019-02-02T14:34:53.337Z,15.20
2019-02-02T14:39:57.154Z,13.25
2019-02-02T14:45:01.272Z,13.00
2019-02-02T14:50:08.119Z,14.40
2019-02-02T14:55:15.197Z,13.60
2019-02-02T15:00:20.959Z,14.00
2019-02-02T15:05:24.838Z,11.75
2019-02-02T15:10:28.808Z,15.00
2019-02-02T15:15:32.868Z,14.00
2019-02-02T15:20:37.727Z,12.80
2019-02-02T15:25:51.246Z,13.00
2019-02-02T15:30:55.481Z,12.00
2019-02-02T15:35:59.403Z,14.00
2019-02-02T15:41:03.215Z,13.50
2019-02-02T15:46:07.273Z,13.00
2019-02-02T15:51:11.330Z,12.20
2019-02-02T15:56:15.606Z,13.00
2019-02-02T16:01:19.470Z,12.00
2019-02-02T16:06:23.379Z,12.80
2019-02-02T16:11:27.189Z,13.00
2019-02-02T16:16:31.245Z,13.40
2019-02-02T16:21:35.093Z,13.00
2019-02-02T16:26:38.888Z,13.20
2019-02-02T16:31:42.915Z,14.20
2019-02-02T16:36:46.883Z,14.25
2019-02-02T16:41:50.847Z,12.75
2019-02-02T16:46:54.768Z,11.50
2019-02-02T16:51:58.998Z,13.00
2019-02-02T16:57:03.400Z,13.25
2019-02-02T17:02:07.196Z,13.00
2019-02-02T17:07:11.183Z,15.00
2019-02-02T17:12:15.303Z,14.60
2019-02-02T17:17:19.271Z,16.00
2019-02-02T17:22:23.075Z,15.40
2019-02-02T17:27:27.128Z,16.40
2019-02-02T17:32:31.376Z,16.00
2019-02-02T17:37:35.380Z,16.00
2019-02-02T17:42:39.201Z,15.00
2019-02-02T17:47:43.028Z,19.00
2019-02-02T17:52:47.577Z,16.80
2019-02-02T17:57:51.399Z,17.80
2019-02-02T18:02:55.295Z,20.00
2019-02-02T18:07:59.412Z,19.80
2019-02-02T18:13:03.413Z,17.75
2019-02-02T18:18:07.537Z,19.80
2019-02-02T18:23:11.632Z,20.00
2019-02-02T18:28:16.172Z,19.80
2019-02-02T18:33:20.274Z,17.40
2019-02-02T18:38:24.219Z,20.20
2019-02-02T18:43:28.986Z,18.40
2019-02-02T18:48:32.793Z,19.00
2019-02-02T18:53:36.698Z,19.00
2019-02-02T18:58:41.324Z,17.25
2019-02-02T19:03:46.594Z,19.80
2019-02-02T19:08:51.673Z,20.00
2019-02-02T19:13:56.704Z,18.00
2019-02-02T19:19:02.708Z,18.00
2019-02-02T19:24:09.227Z,19.50
2019-02-02T19:29:15.748Z,19.80
2019-02-02T19:34:22.653Z,18.00
2019-02-02T19:39:29.281Z,19.75
2019-02-02T19:44:35.431Z,20.20
2019-02-02T19:49:42.268Z,19.40
2019-02-02T19:54:50.143Z,19.60
2019-02-02T19:59:57.503Z,20.25
2019-02-02T20:05:03.749Z,18.50
2019-02-02T20:10:12.817Z,18.80
2019-02-02T20:15:21.885Z,19.75
2019-02-02T20:20:30.155Z,19.50
2019-02-02T20:25:37.280Z,19.00
2019-02-02T20:30:45.052Z,21.00
2019-02-02T20:35:52.958Z,19.00
2019-02-02T20:41:01.430Z,20.00
2019-02-02T20:46:07.789Z,20.50
2019-02-02T20:51:13.775Z,19.50
2019-02-02T20:56:20.430Z,19.75
2019-02-02T21:01:26.568Z,20.00
2019-02-02T21:06:32.013Z,19.50
2019-02-02T21:11:37.356Z,20.60
2019-02-02T21:16:43.547Z,19.00
2019-02-02T21:21:49.608Z,19.25
2019-02-02T21:26:55.461Z,18.75
2019-02-02T21:32:00.751Z,19.25
2019-02-02T21:37:06.219Z,19.00
2019-02-02T21:42:11.468Z,17.50
2019-02-02T21:47:17.316Z,17.80
2019-02-02T21:52:22.218Z,15.75
2019-02-02T21:57:26.850Z,18.80
2019-02-02T22:02:32.931Z,18.00
2019-02-02T22:07:43.723Z,17.50
2019-02-02T22:12:48.314Z,18.00
2019-02-02T22:17:52.877Z,18.25
2019-02-02T22:22:57.299Z,18.25
2019-02-02T22:28:01.872Z,16.00
2019-02-02T22:33:05.969Z,18.25
2019-02-02T22:38:09.829Z,16.00
2019-02-02T22:43:13.670Z,18.00
2019-02-02T22:48:17.707Z,16.00
2019-02-02T22:53:21.535Z,18.00
2019-02-02T22:58:25.402Z,15.60
2019-02-02T23:04:16.641Z,15.00
2019-02-02T23:09:55.155Z,15.00
2019-02-02T23:15:28.991Z,15.00
2019-02-02T23:20:32.776Z,14.80
2019-02-02T23:25:36.742Z,15.00
2019-02-02T23:30:40.520Z,14.00
2019-02-02T23:35:44.310Z,15.50
2019-02-02T23:40:48.595Z,14.75
2019-02-02T23:45:52.388Z,15.50
2019-02-02T23:50:56.176Z,15.00
2019-02-02T23:55:59.988Z,14.75
